GOOY/DKR METAR and TAF weather

Enter ICAO airport designator
Station Type Date Time Source
GOOY METAR 2020/06/05 09:00 UTC NOAA

GOOY 050900Z 32008KT CAVOK 25/22 Q1013


Station Type Date Time Source
GOOY Decoded METAR 2020/06/05 09:00 UTC NOAA

Dakar / Yoff, Senegal (GOOY) 14-44N 017-30W 24M
Jun 05, 2020 - 05:00 AM EDT / 2020.06.05 0900 UTC
Wind: from the NW (320 degrees) at 9 MPH (8 KT):0
Visibility: greater than 7 mile(s):0
Temperature: 77 F (25 C)
Dew Point: 71 F (22 C)
Relative Humidity: 83%
Pressure (altimeter): 29.91 in. Hg (1013 hPa)
ob: GOOY 050900Z 32008KT CAVOK 25/22 Q1013
cycle: 9

Station Type Date Time Source
GOOY TAF 2020/06/05 06:53 UTC NOAA

TAF GOOY 050530Z 0506/0612 33010KT CAVOK

Example: see airport list